Kezdőlap
METAR-TAF:

METAR-TAF

Repülőterek :

Lawrence Municipal Airport

Lawrence, Massachusetts, Amerikai Egyesült Államok

földrajzi szélesség: 42-42-47N, földrajzi hosszúság: 071-07-33W, magasság: 45 m

Jelenlegi meteorológiai megfigyelések

A jelentés 18 perccel ezelõtt készült, 15:54 UTC
Nyugati szél 6 kt
Hőmérséklet 12°C
Páratartalom 32%
Légköri nyomás 1016 hPa
Látótávolság: 16.1 km
Derült ég

METAR: KLWM 061554Z 28006KT 10SM CLR 12/M04 A3000 RMK AO2 SLP159 T01221044

Idő: 12:12 (16:12 UTC)


TAF: hiányzik

Meteorológiai megfigyelések és előrejelzések több, mint 4000 repülőtéren (METAR és TAF jelentéseket).

A térképen piros és sárga pontok jelzik az elérhető meteorológiai állomásokat.

Mozgassa az egeret a pont fölött, hogy megjelenjen az állomás neve.

Azután kattintson az időjárási megfigyelések és előrejelzések megtekintéséhez.

A térkép megváltoztatása: kattintson a fekete keresztel jelölt zöld gombra ráközelítéshez, a vonallal jelölt zöld gombra távolításhoz, vagy a zöld nyilakra a szomszédos térképek eléréséhez.


METAR-TAF: